Marco Polo — C6JZ7 — position and weather

sailwx.info

Track history (hours):
 
Tides and Currents Weather Stations Pressure Air Temp Water Temp Dewpoint Dewpoint Depression Visibility Wind Speed Wind Dir Waves Ship Positions

Marco Polo

Operator: Orient Lines

Last reported at 2018-May-26 02:30 UTC. Time now 2018-May-26 02:34 UTC.
Position N 51°30' W 010°12'.

Type: Ship. MMSI: 308691456.

Date/timePositionNaut miles runAvg speedWind from/ knotsBaromVisibWave heightAir tempDewpointWater temp
2018-May-26 02:30N 51°30' W 010°12'3 5.9
2018-May-26 02:00N 51°31' W 010°16'1216.6
2018-May-26 01:18N 51°39' W 010°30'616.5
2018-May-26 00:56N 51°43' W 010°37'1116.1
2018-May-26 00:15N 51°52' W 010°48'816.0
2018-May-25 23:45N 51°59' W 010°55'515.9
2018-May-25 23:27N 52°03' W 010°59'715.9
2018-May-25 22:59N 52°09' W 011°05'  
2018-May-17 20:01N 55°56' W 006°56'113.0
2018-May-17 19:55N 55°55' W 006°55'513.0
2018-May-17 19:30N 55°50' W 006°52'612.8
2018-May-17 19:00N 55°44' W 006°47'612.7
2018-May-17 18:30N 55°39' W 006°42'713.5
2018-May-17 18:00N 55°34' W 006°33'714.5
2018-May-17 17:31N 55°29' W 006°24'714.8
2018-May-17 17:01N 55°25' W 006°13'815.8
2018-May-17 16:31N 55°22' W 006°00'1918.4
2018-May-17 15:28N 55°05' W 005°44'817.0
2018-May-17 15:01N 54°58' W 005°39'816.8
2018-May-17 14:30N 54°50' W 005°33'816.9
2018-May-17 14:01N 54°43' W 005°26'816.4
2018-May-17 13:31N 54°35' W 005°21'815.6
2018-May-17 13:00N 54°28' W 005°16'714.7
2018-May-17 12:31N 54°20' W 005°15'714.7
2018-May-17 12:00N 54°13' W 005°15'714.4
2018-May-17 11:29N 54°06' W 005°15'714.9
2018-May-17 11:00N 53°59' W 005°17'915.4
2018-May-17 10:24N 53°49' W 005°18'915.7
2018-May-17 09:49N 53°40' W 005°21'1116.4
2018-May-17 09:10N 53°30' W 005°23'316.6
2018-May-17 09:00N 53°27' W 005°23'816.2
2018-May-17 08:30N 53°19' W 005°25'815.6
2018-May-17 08:00N 53°11' W 005°27'917.2
2018-May-17 07:29N 53°02' W 005°27'817.1
2018-May-17 07:01N 52°54' W 005°29'815.9
2018-May-17 06:30N 52°46' W 005°31'815.1
2018-May-17 06:00N 52°39' W 005°33'6512.2
2018-May-17 00:42N 51°34' W 005°37'315.2
2018-May-17 00:30N 51°33' W 005°32'815.4
2018-May-17 00:00N 51°32' W 005°20'815.9
2018-May-16 23:30N 51°31' W 005°07'816.9
2018-May-16 23:00N 51°30' W 004°54'917.6
2018-May-16 22:30N 51°29' W 004°40'5615.7
2018-May-16 18:56N 51°23' W 003°10'4 9.0
2018-May-16 18:30N 51°27' W 003°10'0 0.4
2018-May-16 17:56N 51°27' W 003°09'0 0.2
2018-May-16 16:23N 51°28' W 003°09'0 0.0
2018-May-16 15:59N 51°28' W 003°09'0 0.0
2018-May-16 15:26N 51°28' W 003°09'0 0.0
2018-May-16 14:56N 51°28' W 003°09'0 0.0
2018-May-16 14:26N 51°28' W 003°09'0 0.0
2018-May-16 13:47N 51°28' W 003°09'0 0.0
2018-May-16 13:23N 51°28' W 003°09'0 0.0
2018-May-16 12:59N 51°28' W 003°09'0 0.0
2018-May-16 12:29N 51°28' W 003°09'0 0.0
2018-May-16 11:59N 51°28' W 003°09'0 0.0
2018-May-16 11:17N 51°28' W 003°09'0 0.0
2018-May-16 10:47N 51°28' W 003°09'0 0.0
2018-May-16 10:23N 51°28' W 003°09'0 0.0
2018-May-16 09:59N 51°28' W 003°09'0 0.0
2018-May-16 09:23N 51°28' W 003°09'0 0.0
2018-May-16 08:59N 51°28' W 003°09'0 0.0
2018-May-16 08:29N 51°28' W 003°09'0 0.1
2018-May-16 08:00N 51°28' W 003°09'0 0.6
2018-May-16 07:19N 51°27' W 003°10'3 4.0
2018-May-16 06:39N 51°25' W 003°09'  
Track history (hours):
 
Tides and Currents Weather Stations Pressure Air Temp Water Temp Dewpoint Dewpoint Depression Visibility Wind Speed Wind Dir Waves Ship Positions

Marco Polo

Operator: Orient Lines

Last reported at 2018-May-26 02:30 UTC. Time now 2018-May-26 02:34 UTC.
Position N 51°30' W 010°12'.

Type: Ship. MMSI: 308691456.

Date/timePositionNaut miles runAvg speedWind from/ knotsBaromVisibWave heightAir tempDewpointWater temp
2018-May-26 02:30N 51°30' W 010°12'3 5.9
2018-May-26 02:00N 51°31' W 010°16'1216.6
2018-May-26 01:18N 51°39' W 010°30'616.5
2018-May-26 00:56N 51°43' W 010°37'1116.1
2018-May-26 00:15N 51°52' W 010°48'816.0
2018-May-25 23:45N 51°59' W 010°55'515.9
2018-May-25 23:27N 52°03' W 010°59'715.9
2018-May-25 22:59N 52°09' W 011°05'  
2018-May-17 20:01N 55°56' W 006°56'113.0
2018-May-17 19:55N 55°55' W 006°55'513.0
2018-May-17 19:30N 55°50' W 006°52'612.8
2018-May-17 19:00N 55°44' W 006°47'612.7
2018-May-17 18:30N 55°39' W 006°42'713.5
2018-May-17 18:00N 55°34' W 006°33'714.5
2018-May-17 17:31N 55°29' W 006°24'714.8
2018-May-17 17:01N 55°25' W 006°13'815.8
2018-May-17 16:31N 55°22' W 006°00'1918.4
2018-May-17 15:28N 55°05' W 005°44'817.0
2018-May-17 15:01N 54°58' W 005°39'816.8
2018-May-17 14:30N 54°50' W 005°33'816.9
2018-May-17 14:01N 54°43' W 005°26'816.4
2018-May-17 13:31N 54°35' W 005°21'815.6
2018-May-17 13:00N 54°28' W 005°16'714.7
2018-May-17 12:31N 54°20' W 005°15'714.7
2018-May-17 12:00N 54°13' W 005°15'714.4
2018-May-17 11:29N 54°06' W 005°15'714.9
2018-May-17 11:00N 53°59' W 005°17'915.4
2018-May-17 10:24N 53°49' W 005°18'915.7
2018-May-17 09:49N 53°40' W 005°21'1116.4
2018-May-17 09:10N 53°30' W 005°23'316.6
2018-May-17 09:00N 53°27' W 005°23'816.2
2018-May-17 08:30N 53°19' W 005°25'815.6
2018-May-17 08:00N 53°11' W 005°27'917.2
2018-May-17 07:29N 53°02' W 005°27'817.1
2018-May-17 07:01N 52°54' W 005°29'815.9
2018-May-17 06:30N 52°46' W 005°31'815.1
2018-May-17 06:00N 52°39' W 005°33'6512.2
2018-May-17 00:42N 51°34' W 005°37'315.2
2018-May-17 00:30N 51°33' W 005°32'815.4
2018-May-17 00:00N 51°32' W 005°20'815.9
2018-May-16 23:30N 51°31' W 005°07'816.9
2018-May-16 23:00N 51°30' W 004°54'917.6
2018-May-16 22:30N 51°29' W 004°40'5615.7
2018-May-16 18:56N 51°23' W 003°10'4 9.0
2018-May-16 18:30N 51°27' W 003°10'0 0.4
2018-May-16 17:56N 51°27' W 003°09'0 0.2
2018-May-16 16:23N 51°28' W 003°09'0 0.0
2018-May-16 15:59N 51°28' W 003°09'0 0.0
2018-May-16 15:26N 51°28' W 003°09'0 0.0
2018-May-16 14:56N 51°28' W 003°09'0 0.0
2018-May-16 14:26N 51°28' W 003°09'0 0.0
2018-May-16 13:47N 51°28' W 003°09'0 0.0
2018-May-16 13:23N 51°28' W 003°09'0 0.0
2018-May-16 12:59N 51°28' W 003°09'0 0.0
2018-May-16 12:29N 51°28' W 003°09'0 0.0
2018-May-16 11:59N 51°28' W 003°09'0 0.0
2018-May-16 11:17N 51°28' W 003°09'0 0.0
2018-May-16 10:47N 51°28' W 003°09'0 0.0
2018-May-16 10:23N 51°28' W 003°09'0 0.0
2018-May-16 09:59N 51°28' W 003°09'0 0.0
2018-May-16 09:23N 51°28' W 003°09'0 0.0
2018-May-16 08:59N 51°28' W 003°09'0 0.0
2018-May-16 08:29N 51°28' W 003°09'0 0.1
2018-May-16 08:00N 51°28' W 003°09'0 0.6
2018-May-16 07:19N 51°27' W 003°10'3 4.0
2018-May-16 06:39N 51°25' W 003°09'  

Dump ship's entire track history